Time;durP1;ratioP1;P1;durP2;ratioP2;P2;SDS_P1;SDS_P2;PMS_P1;PMS_P2;Temp;Humidity;BMP_temperature;BMP_pressure;BME280_temperature;BME280_humidity;BME280_pressure;Samples;Min_cycle;Max_cycle;Signal;HPM_P1;HPM_P2
2023/04/15 00:01:47;;;;;;;8.65;5.32;;;;;;;15.48;65.75;98837.94;5071198;28;20108;-76
2023/04/15 00:04:12;;;;;;;7.20;3.97;;;;;;;14.95;66.46;98750.13;5071275;28;20070;-76
2023/04/15 00:06:38;;;;;;;7.93;4.15;;;;;;;15.66;66.17;98863.75;5071303;28;20062;-76
2023/04/15 00:09:04;;;;;;;8.63;5.10;;;;;;;15.17;66.08;98775.19;5069801;28;20020;-76
2023/04/15 00:11:30;;;;;;;6.55;4.22;;;;;;;15.58;66.61;98840.09;5071328;28;20035;-78
2023/04/15 00:13:55;;;;;;;13.25;5.50;;;;;;;15.30;66.57;98797.31;5071062;28;20446;-77
2023/04/15 00:16:21;;;;;;;9.63;5.63;;;;;;;15.35;66.95;98786.78;5071167;28;20444;-76
2023/04/15 00:18:46;;;;;;;9.43;5.40;;;;;;;15.10;67.10;98739.91;5071217;28;20024;-78
2023/04/15 00:21:12;;;;;;;9.45;4.60;;;;;;;15.59;67.22;98828.41;5071169;28;20427;-77
2023/04/15 00:23:37;;;;;;;9.63;7.35;;;;;;;14.98;67.27;98738.25;5071019;28;20020;-76
2023/04/15 00:26:02;;;;;;;8.23;5.55;;;;;;;15.58;67.03;98851.53;5069674;28;20452;-77
2023/04/15 00:28:28;;;;;;;8.70;4.43;;;;;;;15.57;67.26;98836.63;5071109;28;20027;-76
2023/04/15 00:30:53;;;;;;;7.90;4.95;;;;;;;15.10;67.59;98760.34;5069791;28;20544;-74
2023/04/15 00:33:19;;;;;;;10.88;5.43;;;;;;;15.47;67.66;98830.19;5071300;28;20021;-77
2023/04/15 00:35:44;;;;;;;10.48;5.60;;;;;;;15.54;67.70;98845.03;5071146;28;20025;-77
2023/04/15 00:38:10;;;;;;;9.88;5.57;;;;;;;15.36;68.00;98805.19;5071034;28;20099;-78
2023/04/15 00:40:36;;;;;;;13.23;5.93;;;;;;;15.08;67.80;98741.97;5070914;28;20390;-77
2023/04/15 00:43:03;;;;;;;8.98;4.72;;;;;;;15.22;67.97;98755.88;5069377;28;20017;-76
2023/04/15 00:45:28;;;;;;;11.73;5.10;;;;;;;14.96;67.58;98719.84;5070784;28;20529;-76
2023/04/15 00:47:54;;;;;;;9.73;4.88;;;;;;;15.39;67.41;98787.97;5070824;28;20024;-74
2023/04/15 00:50:20;;;;;;;10.45;5.35;;;;;;;15.53;67.37;98803.50;5071152;28;20558;-78
2023/04/15 00:52:46;;;;;;;11.70;4.60;;;;;;;15.40;67.48;98784.25;5070830;28;20016;-77
2023/04/15 00:55:11;;;;;;;9.98;4.85;;;;;;;15.39;67.33;98777.31;5070678;28;20135;-77
2023/04/15 00:57:38;;;;;;;10.43;4.80;;;;;;;15.54;67.80;98802.47;5070722;28;20020;-77
2023/04/15 01:00:06;;;;;;;12.73;4.55;;;;;;;15.28;67.83;98765.63;5070665;28;20021;-77
2023/04/15 01:02:33;;;;;;;11.30;4.82;;;;;;;15.28;67.58;98778.91;5070615;28;20043;-77
2023/04/15 01:04:58;;;;;;;7.68;4.90;;;;;;;15.68;67.73;98831.59;5070595;28;20020;-78
2023/04/15 01:07:24;;;;;;;8.90;4.63;;;;;;;15.68;67.72;98834.25;5074155;28;20035;-77
2023/04/15 01:09:49;;;;;;;10.45;4.57;;;;;;;15.31;67.48;98761.69;5074047;28;20103;-77
2023/04/15 01:12:16;;;;;;;10.85;4.65;;;;;;;15.29;67.03;98769.09;5074122;28;20031;-77
2023/04/15 01:14:41;;;;;;;10.80;4.72;;;;;;;15.30;67.13;98747.56;5073946;28;20028;-77
2023/04/15 01:17:07;;;;;;;9.05;4.20;;;;;;;15.39;66.82;98774.66;5073995;28;20025;-77
2023/04/15 01:19:33;;;;;;;9.52;4.47;;;;;;;15.40;66.60;98790.41;5073986;28;20021;-76
2023/04/15 01:21:58;;;;;;;6.30;3.25;;;;;;;15.30;66.84;98795.44;5074050;28;20024;-75
2023/04/15 01:24:26;;;;;;;7.70;3.90;;;;;;;15.68;66.56;98853.69;5074046;28;20100;-77
2023/04/15 01:26:52;;;;;;;6.53;3.97;;;;;;;15.39;66.70;98810.06;5073756;28;20052;-77
2023/04/15 01:29:18;;;;;;;9.93;4.20;;;;;;;15.37;66.43;98812.13;5073983;28;20025;-75
2023/04/15 01:31:51;;;;;;;6.25;3.75;;;;;;;15.60;66.77;98851.31;5074080;28;20009;-76
2023/04/15 01:34:17;;;;;;;6.18;3.53;;;;;;;15.49;66.71;98828.94;5073918;28;20111;-76
2023/04/15 01:36:42;;;;;;;9.65;3.58;;;;;;;15.05;67.11;98761.03;5073957;28;20048;-77
2023/04/15 01:39:08;;;;;;;6.60;3.60;;;;;;;15.48;66.87;98837.13;5073897;28;20048;-76
2023/04/15 01:41:33;;;;;;;12.98;4.38;;;;;;;15.48;67.07;98843.28;5073683;28;20035;-76
2023/04/15 01:43:59;;;;;;;5.03;3.75;;;;;;;15.50;67.57;98838.53;5073643;28;20077;-76
2023/04/15 01:46:25;;;;;;;9.02;4.30;;;;;;;15.27;67.34;98828.63;5073660;28;20561;-77
2023/04/15 01:48:50;;;;;;;7.97;3.75;;;;;;;14.68;67.71;98751.50;5073637;28;20017;-75
2023/04/15 01:51:16;;;;;;;7.38;4.90;;;;;;;15.30;67.53;98867.25;5073524;28;20490;-76
2023/04/15 01:53:41;;;;;;;8.63;5.10;;;;;;;15.47;67.83;98873.56;5073354;28;20020;-76
2023/04/15 01:56:07;;;;;;;8.07;4.47;;;;;;;15.41;67.53;98871.00;5073290;28;20016;-77
2023/04/15 01:58:32;;;;;;;8.07;4.10;;;;;;;15.37;67.88;98860.00;5073487;28;20028;-76
2023/04/15 02:00:58;;;;;;;7.63;4.43;;;;;;;15.04;67.43;98809.13;5073230;28;20077;-76
2023/04/15 02:03:28;;;;;;;7.70;4.07;;;;;;;15.45;67.57;98865.00;5073496;28;20016;-76
2023/04/15 02:05:53;;;;;;;7.38;4.68;;;;;;;15.29;67.64;98819.63;5073256;28;20021;-76
2023/04/15 02:08:19;;;;;;;9.43;6.82;;;;;;;15.31;67.67;98850.28;5073085;28;20081;-77
2023/04/15 02:10:44;;;;;;;10.40;7.22;;;;;;;14.89;67.55;98796.22;5073221;28;20017;-76
2023/04/15 02:13:10;;;;;;;10.07;6.32;;;;;;;15.27;67.77;98857.88;5072837;28;20580;-77
2023/04/15 02:15:35;;;;;;;11.35;6.63;;;;;;;14.83;68.03;98773.97;5072976;28;20025;-76
2023/04/15 02:18:01;;;;;;;10.73;5.68;;;;;;;14.84;67.70;98775.59;5071961;28;20030;-77
2023/04/15 02:20:27;;;;;;;10.30;5.55;;;;;;;15.24;67.85;98828.28;5071628;28;20028;-77
2023/04/15 02:22:52;;;;;;;11.82;6.20;;;;;;;15.20;68.02;98838.53;5072957;28;20028;-76
2023/04/15 02:25:19;;;;;;;11.45;6.60;;;;;;;15.19;67.95;98847.56;5072762;28;20425;-77
2023/04/15 02:27:44;;;;;;;8.25;5.80;;;;;;;14.99;68.18;98809.78;5072735;28;20021;-76
2023/04/15 02:30:10;;;;;;;9.05;6.03;;;;;;;15.38;68.03;98858.97;5072669;28;20440;-77
2023/04/15 02:32:36;;;;;;;11.07;6.07;;;;;;;15.27;68.18;98833.94;5072798;28;20020;-76
2023/04/15 02:35:07;;;;;;;13.07;8.10;;;;;;;14.97;68.28;98784.47;5072663;28;20021;-76
2023/04/15 02:37:39;;;;;;;10.60;7.43;;;;;;;15.35;68.38;98834.66;5071404;28;20071;-76
2023/04/15 02:40:07;;;;;;;13.75;8.27;;;;;;;15.25;68.88;98814.75;5071406;28;20031;-76
2023/04/15 02:42:32;;;;;;;9.73;5.47;;;;;;;15.31;68.56;98847.59;5072512;28;20020;-76
2023/04/15 02:44:58;;;;;;;14.20;7.18;;;;;;;15.12;68.98;98848.69;5072640;28;20089;-76
2023/04/15 02:47:23;;;;;;;12.50;6.82;;;;;;;14.93;68.97;98829.28;5072551;28;20048;-76
2023/04/15 02:49:49;;;;;;;10.93;6.65;;;;;;;14.75;69.11;98808.00;5072304;28;20561;-76
2023/04/15 02:52:14;;;;;;;14.88;7.32;;;;;;;15.29;68.79;98894.09;5070936;28;20056;-77
2023/04/15 02:54:39;;;;;;;13.40;8.07;;;;;;;15.20;69.12;98881.09;5072272;28;20082;-75
2023/04/15 02:57:05;;;;;;;10.93;6.30;;;;;;;14.75;69.06;98800.03;5071045;28;20021;-76
2023/04/15 02:59:31;;;;;;;11.40;6.53;;;;;;;14.83;69.52;98816.50;5072178;28;20019;-75
2023/04/15 03:01:59;;;;;;;11.40;6.50;;;;;;;15.17;69.65;98862.13;5072211;28;20069;-77
2023/04/15 03:04:25;;;;;;;12.60;6.97;;;;;;;14.57;69.54;98764.50;5072297;28;20013;-76
2023/04/15 03:06:50;;;;;;;10.55;5.90;;;;;;;14.71;69.47;98782.94;5072128;28;20413;-77
2023/04/15 03:09:16;;;;;;;10.60;6.30;;;;;;;14.74;69.31;98777.97;5070749;28;20497;-76
2023/04/15 03:11:41;;;;;;;14.45;6.22;;;;;;;15.21;69.95;98852.66;5072049;28;20103;-77
2023/04/15 03:14:07;;;;;;;8.93;5.50;;;;;;;15.21;69.61;98857.97;5071613;28;20020;-77
2023/04/15 03:16:32;;;;;;;13.88;5.88;;;;;;;15.11;69.52;98855.84;5070530;28;20524;-76
2023/04/15 03:18:57;;;;;;;10.27;5.60;;;;;;;14.82;69.64;98816.72;5071754;28;20016;-76
2023/04/15 03:21:23;;;;;;;9.20;5.88;;;;;;;15.16;69.63;98887.09;5072025;28;20028;-76
2023/04/15 03:23:48;;;;;;;9.35;5.05;;;;;;;14.98;70.01;98847.22;5071837;28;20092;-76
2023/04/15 03:26:30;;;;;;;10.50;5.93;;;;;;;15.14;69.90;98894.47;5071530;28;20076;-76
2023/04/15 03:28:56;;;;;;;;;;;;;;;14.99;70.30;98883.41;5072262;28;20023;-77
2023/04/15 03:31:21;;;;;;;9.45;5.53;;;;;;;15.04;69.70;98871.06;5071639;28;20369;-76
2023/04/15 03:33:47;;;;;;;10.30;6.18;;;;;;;15.11;70.12;98878.97;5071495;28;20513;-77
2023/04/15 03:36:12;;;;;;;11.18;5.88;;;;;;;15.04;70.01;98868.41;5071449;28;20032;-76
2023/04/15 03:38:38;;;;;;;10.25;5.80;;;;;;;14.68;69.67;98805.44;5071664;28;20059;-76
2023/04/15 03:41:04;;;;;;;11.93;5.40;;;;;;;14.93;70.01;98850.56;5071440;28;20032;-76
2023/04/15 03:43:29;;;;;;;8.27;5.25;;;;;;;14.55;69.91;98798.44;5071571;28;20501;-75
2023/04/15 03:45:55;;;;;;;11.15;5.15;;;;;;;14.56;69.82;98794.75;5071281;28;20024;-76
2023/04/15 03:48:20;;;;;;;10.35;5.80;;;;;;;14.68;69.54;98808.09;5071454;28;20039;-76
2023/04/15 03:50:46;;;;;;;11.75;6.80;;;;;;;14.97;69.88;98846.41;5071428;28;20025;-76
2023/04/15 03:53:11;;;;;;;10.90;6.53;;;;;;;15.19;70.04;98882.13;5071290;28;20020;-77
2023/04/15 03:55:36;;;;;;;9.55;5.75;;;;;;;14.94;70.28;98847.66;5071246;28;20017;-76
2023/04/15 03:58:02;;;;;;;10.00;5.65;;;;;;;14.74;70.16;98812.53;5071390;28;20416;-76
2023/04/15 04:00:27;;;;;;;11.80;6.63;;;;;;;14.80;70.23;98854.16;5071298;28;20505;-76
2023/04/15 04:02:53;;;;;;;14.60;6.20;;;;;;;14.74;70.04;98851.56;5071266;28;20035;-76
2023/04/15 04:05:18;;;;;;;11.25;6.47;;;;;;;14.80;70.32;98872.75;5071119;28;20099;-75
2023/04/15 04:07:44;;;;;;;13.32;7.38;;;;;;;14.84;70.39;98903.16;5071170;28;20026;-77
2023/04/15 04:10:10;;;;;;;12.90;8.07;;;;;;;14.95;70.47;98904.31;5071299;28;20463;-76
2023/04/15 04:12:35;;;;;;;12.88;7.57;;;;;;;15.21;70.41;98951.06;5071084;28;20104;-76
2023/04/15 04:15:01;;;;;;;13.32;7.80;;;;;;;15.23;70.30;98957.78;5071193;28;20071;-75
2023/04/15 04:17:26;;;;;;;12.10;7.00;;;;;;;15.24;70.01;98940.78;5071100;28;20086;-75
2023/04/15 04:19:52;;;;;;;10.55;6.97;;;;;;;14.97;70.04;98902.25;5071041;28;20501;-76
2023/04/15 04:22:21;;;;;;;13.05;6.47;;;;;;;14.71;69.73;98871.41;5071057;28;20019;-76
2023/04/15 04:24:47;;;;;;;10.05;6.18;;;;;;;15.00;70.16;98904.44;5070700;28;20017;-76
2023/04/15 04:27:12;;;;;;;9.13;6.03;;;;;;;14.88;70.08;98882.31;5070818;28;20402;-76
2023/04/15 04:29:37;;;;;;;9.88;6.38;;;;;;;15.29;70.50;98953.41;5071125;28;20103;-76
2023/04/15 04:32:03;;;;;;;9.65;5.70;;;;;;;14.86;70.09;98892.31;5071156;28;20028;-76
2023/04/15 04:34:28;;;;;;;8.90;4.72;;;;;;;14.90;70.42;98910.28;5070890;28;20083;-77
2023/04/15 04:36:54;;;;;;;10.40;5.13;;;;;;;15.03;70.29;98930.59;5071070;28;20025;-76
2023/04/15 04:39:19;;;;;;;9.00;5.07;;;;;;;15.06;70.91;98937.31;5070713;28;20032;-76
2023/04/15 04:41:45;;;;;;;10.90;4.38;;;;;;;14.51;70.31;98850.38;5073759;28;20025;-76
2023/04/15 04:44:10;;;;;;;9.77;4.55;;;;;;;14.93;70.84;98906.38;5074820;28;20056;-78
2023/04/15 04:46:35;;;;;;;6.90;4.97;;;;;;;14.60;70.71;98864.19;5073377;28;20020;-76
2023/04/15 04:49:01;;;;;;;9.18;4.82;;;;;;;14.96;70.97;98943.16;5074553;28;20028;-75
2023/04/15 04:51:26;;;;;;;5.93;4.22;;;;;;;15.24;70.97;98969.22;5074648;28;20107;-77
2023/04/15 04:53:53;;;;;;;6.95;3.58;;;;;;;15.03;70.82;98921.81;5074543;28;20512;-77
2023/04/15 04:56:18;;;;;;;8.90;4.32;;;;;;;14.84;70.67;98897.84;5074688;28;20520;-76
2023/04/15 04:58:44;;;;;;;8.43;4.45;;;;;;;15.23;70.40;98965.75;5073222;28;20020;-76
2023/04/15 05:01:09;;;;;;;10.02;4.82;;;;;;;15.00;70.48;98933.69;5074633;28;20024;-77
2023/04/15 05:03:35;;;;;;;7.20;5.00;;;;;;;15.25;70.83;98987.63;5074574;28;20017;-76
2023/04/15 05:06:04;;;;;;;9.43;5.35;;;;;;;14.88;70.47;98915.00;5074444;28;20070;-75
2023/04/15 05:08:30;;;;;;;8.60;4.75;;;;;;;14.98;70.83;98926.97;5074205;28;20028;-76
2023/04/15 05:10:55;;;;;;;10.57;5.20;;;;;;;14.98;70.41;98941.06;5074148;28;20029;-75
2023/04/15 05:13:21;;;;;;;8.52;5.22;;;;;;;15.02;70.46;98944.09;5074017;28;20032;-76
2023/04/15 05:15:46;;;;;;;7.78;4.57;;;;;;;14.80;70.61;98898.50;5073981;28;20031;-77
2023/04/15 05:18:12;;;;;;;8.05;5.22;;;;;;;14.97;70.48;98915.53;5074045;28;20091;-76
2023/04/15 05:20:37;;;;;;;7.63;4.80;;;;;;;15.47;70.21;98980.00;5072671;28;20055;-76
2023/04/15 05:23:03;;;;;;;8.45;5.05;;;;;;;15.42;70.23;98958.56;5073909;28;20025;-76
2023/04/15 05:25:28;;;;;;;5.90;4.95;;;;;;;15.07;70.08;98904.38;5073757;28;20036;-75
2023/04/15 05:27:54;;;;;;;9.02;5.13;;;;;;;15.31;69.92;98938.03;5074028;28;20029;-77
2023/04/15 05:30:19;;;;;;;8.77;5.10;;;;;;;15.49;69.81;98969.13;5074001;28;20032;-77
2023/04/15 05:32:45;;;;;;;7.50;4.70;;;;;;;15.14;69.19;98940.50;5073840;28;20024;-76
2023/04/15 05:35:11;;;;;;;8.27;4.72;;;;;;;15.57;69.71;99009.56;5073729;28;20488;-76
2023/04/15 05:37:36;;;;;;;11.55;5.55;;;;;;;14.91;69.65;98881.88;5073636;28;20520;-76
2023/04/15 05:40:03;;;;;;;9.82;5.40;;;;;;;15.33;69.97;98949.28;5072538;28;20017;-76
2023/04/15 05:42:28;;;;;;;8.85;4.50;;;;;;;15.34;69.66;98950.88;5073985;28;20021;-77
2023/04/15 05:44:54;;;;;;;10.43;4.72;;;;;;;15.21;69.15;98940.41;5073628;28;20382;-76
2023/04/15 05:47:19;;;;;;;8.13;3.95;;;;;;;15.17;69.35;98934.72;5073910;28;20024;-76
2023/04/15 05:49:44;;;;;;;8.02;3.78;;;;;;;15.44;69.32;98975.13;5073727;28;20057;-76
2023/04/15 05:52:10;;;;;;;8.55;3.95;;;;;;;15.68;68.96;99008.03;5072409;28;20039;-76
2023/04/15 05:54:36;;;;;;;7.05;4.00;;;;;;;15.23;69.08;98939.16;5073403;28;20116;-76
2023/04/15 05:57:01;;;;;;;6.93;3.35;;;;;;;15.61;69.18;99009.97;5073365;28;20032;-77
2023/04/15 05:59:27;;;;;;;6.65;3.42;;;;;;;15.74;68.67;99059.56;5073222;28;20023;-75
2023/04/15 06:01:52;;;;;;;6.30;3.03;;;;;;;15.63;68.99;99036.38;5073273;28;20028;-76
2023/04/15 06:04:18;;;;;;;5.10;3.30;;;;;;;15.26;68.54;98969.81;5073127;28;20555;-76
2023/04/15 06:06:43;;;;;;;7.53;3.60;;;;;;;15.78;68.74;99034.94;5073005;28;20051;-76
2023/04/15 06:09:09;;;;;;;4.93;3.00;;;;;;;15.69;68.70;99028.28;5073012;28;20048;-76
2023/04/15 06:11:35;;;;;;;5.20;2.88;;;;;;;15.89;68.10;99054.66;5073014;28;20026;-75
2023/04/15 06:14:00;;;;;;;4.18;2.40;;;;;;;15.48;68.10;99010.06;5072863;28;20050;-76
2023/04/15 06:16:26;;;;;;;8.52;3.35;;;;;;;15.37;67.90;99008.97;5073059;28;20034;-75
2023/04/15 06:18:51;;;;;;;7.68;2.80;;;;;;;15.49;68.11;99025.00;5071811;28;20070;-76
2023/04/15 06:21:16;;;;;;;7.68;3.40;;;;;;;15.40;68.18;99007.72;5072949;28;20016;-77
2023/04/15 06:23:42;;;;;;;5.05;2.83;;;;;;;15.85;68.20;99074.78;5073061;28;20021;-76
2023/04/15 06:26:07;;;;;;;4.25;2.72;;;;;;;15.29;67.98;98987.16;5072688;28;20083;-77
2023/04/15 06:28:33;;;;;;;5.75;3.03;;;;;;;15.83;67.88;99050.25;5072979;28;20056;-77
2023/04/15 06:30:58;;;;;;;6.95;2.75;;;;;;;15.40;68.01;98997.06;5072805;28;20021;-76
2023/04/15 06:33:24;;;;;;;6.75;2.80;;;;;;;15.85;67.63;99053.50;5072747;28;20013;-76
2023/04/15 06:35:49;;;;;;;6.03;2.70;;;;;;;15.33;67.76;98983.03;5072903;28;20032;-76
2023/04/15 06:38:15;;;;;;;7.97;2.75;;;;;;;15.85;68.04;99070.28;5072899;28;20112;-76
2023/04/15 06:40:41;;;;;;;7.25;2.50;;;;;;;15.80;67.91;99085.28;5072922;28;20056;-76
2023/04/15 06:43:06;;;;;;;5.00;2.40;;;;;;;15.24;67.79;99001.94;5072834;28;20020;-77
2023/04/15 06:45:32;;;;;;;6.57;2.08;;;;;;;15.60;67.93;99050.91;5072547;28;20020;-76
2023/04/15 06:47:57;;;;;;;3.95;2.17;;;;;;;15.77;67.96;99057.28;5072356;28;20024;-77
2023/04/15 06:50:23;;;;;;;7.30;2.50;;;;;;;15.91;67.40;99051.78;5072333;28;20036;-76
2023/04/15 06:52:48;;;;;;;7.20;2.38;;;;;;;15.72;66.82;99019.88;5072419;28;20024;-76
2023/04/15 06:55:14;;;;;;;4.43;2.60;;;;;;;16.00;66.60;99071.72;5072206;28;20029;-76
2023/04/15 06:57:39;;;;;;;4.43;2.30;;;;;;;16.07;66.19;99070.59;5072397;28;20412;-77
2023/04/15 07:00:06;;;;;;;4.72;2.70;;;;;;;16.04;66.31;99055.09;5072127;28;20512;-76
2023/04/15 07:02:32;;;;;;;6.05;2.38;;;;;;;15.80;66.43;99011.56;5072222;28;20028;-76
2023/04/15 07:04:57;;;;;;;6.13;3.40;;;;;;;16.28;66.37;99068.50;5072035;28;20021;-76
2023/04/15 07:07:23;;;;;;;8.25;2.50;;;;;;;16.16;65.66;99041.81;5072325;28;20032;-77
2023/04/15 07:09:48;;;;;;;7.05;2.97;;;;;;;16.28;65.07;99045.31;5072499;28;20494;-77
2023/04/15 07:12:14;;;;;;;2.88;1.85;;;;;;;16.63;64.40;99092.59;5072617;28;20103;-76
2023/04/15 07:14:39;;;;;;;3.78;2.10;;;;;;;16.50;64.34;99061.63;5072034;28;20485;-77
2023/04/15 07:17:05;;;;;;;4.32;1.95;;;;;;;16.11;63.72;98997.22;5071911;28;20024;-77
2023/04/15 07:19:30;;;;;;;4.57;1.73;;;;;;;16.48;64.05;99040.53;5071695;28;20442;-76
2023/04/15 07:21:56;;;;;;;4.85;2.08;;;;;;;16.58;63.39;99050.66;5071736;28;20048;-76
2023/04/15 07:24:25;;;;;;;5.40;2.15;;;;;;;16.88;63.67;99095.94;5071606;28;20079;-76
2023/04/15 07:26:51;;;;;;;4.78;2.22;;;;;;;16.36;63.22;98991.75;5070166;28;20048;-77
2023/04/15 07:29:16;;;;;;;6.40;2.47;;;;;;;16.98;63.23;99079.38;5071577;28;20103;-76
2023/04/15 07:31:41;;;;;;;6.93;2.88;;;;;;;16.73;62.86;99024.38;5071464;28;20546;-76
2023/04/15 07:34:07;;;;;;;10.20;2.50;;;;;;;17.28;62.62;99105.97;5071505;28;20086;-76
2023/04/15 07:36:33;;;;;;;7.00;1.98;;;;;;;17.33;61.75;99098.06;5071501;28;20138;-76
2023/04/15 07:39:00;;;;;;;5.10;2.40;;;;;;;17.35;61.99;99096.81;5071629;28;20413;-76
2023/04/15 07:41:26;;;;;;;4.15;2.33;;;;;;;17.25;61.66;99083.22;5071676;28;20024;-77
2023/04/15 07:43:51;;;;;;;5.47;2.17;;;;;;;17.43;61.35;99095.63;5070037;28;20017;-76
2023/04/15 07:46:17;;;;;;;4.72;2.63;;;;;;;17.56;60.80;99118.59;5071441;28;20020;-77
2023/04/15 07:48:42;;;;;;;2.60;1.65;;;;;;;17.19;60.65;99033.47;5071374;28;20082;-77
2023/04/15 07:51:09;;;;;;;4.13;1.90;;;;;;;17.03;60.37;98996.81;5070430;28;20078;-77
2023/04/15 07:53:35;;;;;;;3.53;2.00;;;;;;;17.37;59.72;99032.53;5071136;28;20050;-76
2023/04/15 07:56:00;;;;;;;6.68;2.10;;;;;;;17.37;59.87;99036.00;5071322;28;20468;-77
2023/04/15 07:58:26;;;;;;;6.10;2.55;;;;;;;17.67;59.96;99085.78;5071331;28;20091;-77
2023/04/15 08:00:51;;;;;;;4.60;1.98;;;;;;;17.57;59.89;99064.97;5070082;28;20031;-76
2023/04/15 08:03:17;;;;;;;4.90;2.08;;;;;;;17.69;60.09;99092.50;5070107;28;20020;-76
2023/04/15 08:05:42;;;;;;;4.82;1.92;;;;;;;17.53;59.74;99045.13;5071706;28;20016;-76
2023/04/15 08:08:08;;;;;;;4.30;1.83;;;;;;;17.96;59.49;99098.16;5071499;28;20095;-77
2023/04/15 08:10:33;;;;;;;3.38;2.03;;;;;;;17.43;59.44;98984.34;5069883;28;20044;-76
2023/04/15 08:12:58;;;;;;;5.10;2.08;;;;;;;17.78;59.33;99040.34;5069962;28;20024;-77
2023/04/15 08:15:25;;;;;;;6.40;2.50;;;;;;;17.83;58.52;99014.78;5072178;28;20025;-76
2023/04/15 08:17:50;;;;;;;5.85;2.30;;;;;;;18.43;58.16;99090.75;5075339;28;20052;-77
2023/04/15 08:20:16;;;;;;;4.57;1.58;;;;;;;18.51;57.16;99094.09;5075319;28;20051;-76
2023/04/15 08:22:41;;;;;;;5.28;2.10;;;;;;;18.38;56.62;99073.81;5075258;28;20020;-77
2023/04/15 08:25:08;;;;;;;5.80;2.78;;;;;;;18.49;56.41;99069.47;5075025;28;20096;-77
2023/04/15 08:27:33;;;;;;;4.25;2.20;;;;;;;18.45;56.27;99044.28;5073818;28;20020;-77
2023/04/15 08:29:59;;;;;;;4.97;1.88;;;;;;;18.49;56.32;99037.38;5075128;28;20017;-77
2023/04/15 08:32:25;;;;;;;4.88;1.75;;;;;;;19.07;55.72;99092.41;5073810;28;20025;-76
2023/04/15 08:34:50;;;;;;;3.53;2.00;;;;;;;18.62;55.46;98995.16;5074076;28;20510;-77
2023/04/15 08:37:16;;;;;;;7.82;2.25;;;;;;;19.14;54.80;99061.75;5074921;28;20078;-76
2023/04/15 08:39:43;;;;;;;4.65;2.25;;;;;;;19.41;54.06;99087.84;5074952;28;20024;-76
2023/04/15 08:42:15;;;;;;;5.10;1.98;;;;;;;19.50;53.48;99086.38;5074901;28;20055;-77
2023/04/15 08:44:42;;;;;;;4.50;2.20;;;;;;;19.33;53.03;99047.06;5074953;28;20016;-77
2023/04/15 08:47:08;;;;;;;3.85;2.00;;;;;;;19.56;52.59;99069.34;5074731;28;20497;-77
2023/04/15 08:49:39;;;;;;;5.25;2.10;;;;;;;19.78;52.53;99099.63;5073556;28;20024;-77
2023/04/15 08:52:05;;;;;;;;;;;;;;;19.88;52.81;99098.94;5075260;28;20489;-76
2023/04/15 08:54:31;;;;;;;5.82;2.47;;;;;;;19.72;52.15;99025.63;5074601;28;19916;-77
2023/04/15 08:56:57;;;;;;;5.78;3.13;;;;;;;20.03;51.51;99066.97;5074970;28;20048;-77
2023/04/15 08:59:23;;;;;;;5.55;2.42;;;;;;;20.40;51.26;99090.47;5073209;28;20027;-77
2023/04/15 09:01:52;;;;;;;6.75;3.05;;;;;;;20.63;50.37;99090.16;5074254;28;20028;-78
2023/04/15 09:04:17;;;;;;;5.10;2.42;;;;;;;20.54;50.26;99091.69;5074474;28;20436;-77
2023/04/15 09:06:43;;;;;;;4.03;2.25;;;;;;;20.62;50.07;99097.41;5073074;28;20078;-77
2023/04/15 09:09:08;;;;;;;4.88;2.25;;;;;;;20.75;49.58;99063.16;5074404;28;20095;-77
2023/04/15 09:11:35;;;;;;;5.43;2.40;;;;;;;20.78;49.20;99041.19;5074232;28;20031;-78
2023/04/15 09:14:00;;;;;;;3.72;1.92;;;;;;;20.72;49.05;99007.34;5074072;28;20027;-76
2023/04/15 09:16:26;;;;;;;3.42;1.85;;;;;;;20.71;48.51;98955.56;5072834;28;20024;-75
2023/04/15 09:18:52;;;;;;;4.85;1.70;;;;;;;21.74;47.87;99092.91;5073973;28;20071;-75
2023/04/15 09:21:18;;;;;;;5.38;1.80;;;;;;;21.47;47.77;99030.41;5073933;28;20063;-77
2023/04/15 09:23:58;;;;;;;3.70;2.15;;;;;;;21.68;47.20;99020.59;5072693;28;20024;-76
2023/04/15 09:26:34;;;;;;;5.47;1.67;;;;;;;22.08;47.09;99069.13;5072014;28;20127;-76
2023/04/15 09:29:08;;;;;;;4.40;1.95;;;;;;;22.16;46.77;99068.63;5074004;28;20509;-78
2023/04/15 09:31:34;;;;;;;4.93;1.80;;;;;;;22.11;46.29;99035.53;5073966;28;20021;-74
2023/04/15 09:34:00;;;;;;;5.53;2.08;;;;;;;22.40;46.24;99054.72;5072461;28;20104;-78
2023/04/15 09:36:28;;;;;;;4.55;2.22;;;;;;;21.84;46.40;98957.75;5073573;28;20103;-77
2023/04/15 09:38:58;;;;;;;4.25;1.80;;;;;;;22.41;46.37;99048.25;5073663;28;20095;-77
2023/04/15 09:41:25;;;;;;;4.70;2.33;;;;;;;22.66;46.18;99050.16;5072452;28;20109;-75
2023/04/15 09:43:51;;;;;;;6.75;2.00;;;;;;;22.62;45.30;99008.72;5072455;28;20017;-78
2023/04/15 09:46:16;;;;;;;5.38;2.22;;;;;;;23.00;44.80;99051.25;5073761;28;20027;-78
2023/04/15 09:48:42;;;;;;;5.05;1.75;;;;;;;23.19;44.67;99058.78;5073431;28;20489;-77
2023/04/15 09:51:07;;;;;;;3.92;1.73;;;;;;;23.46;43.88;99046.59;5073452;28;20025;-78
2023/04/15 09:53:35;;;;;;;4.53;2.22;;;;;;;23.66;43.07;99036.84;5075520;28;20040;-77
2023/04/15 09:56:01;;;;;;;4.80;2.15;;;;;;;23.85;43.05;99043.28;5093683;28;20031;-77
2023/04/15 09:58:32;;;;;;;5.30;2.20;;;;;;;24.06;42.38;99039.38;5093975;28;20020;-76
2023/04/15 10:01:00;;;;;;;6.57;2.50;;;;;;;24.06;42.23;99027.78;5093756;28;20027;-76
2023/04/15 10:03:30;;;;;;;3.88;1.77;;;;;;;24.24;41.88;99023.63;5093727;28;20117;-76
2023/04/15 10:05:57;;;;;;;5.47;2.38;;;;;;;24.36;41.87;99018.72;5093891;28;20493;-77
2023/04/15 10:08:26;;;;;;;3.88;1.48;;;;;;;24.60;41.79;99008.84;5094132;28;20511;-76
2023/04/15 10:10:52;;;;;;;5.57;2.10;;;;;;;24.75;40.60;99029.50;5093876;28;20028;-77
2023/04/15 10:13:21;;;;;;;5.50;1.75;;;;;;;24.39;40.50;98989.28;5093599;28;20099;-78
2023/04/15 10:15:56;;;;;;;3.00;1.48;;;;;;;24.77;40.67;99021.13;5091943;28;20412;-78
2023/04/15 10:18:25;;;;;;;5.28;1.75;;;;;;;24.75;40.53;98999.00;5093368;28;20050;-77
2023/04/15 10:20:51;;;;;;;5.43;2.20;;;;;;;24.85;39.85;98971.91;5093279;28;20032;-78
2023/04/15 10:23:17;;;;;;;6.15;2.25;;;;;;;25.00;39.88;98993.38;5093205;28;20035;-77
2023/04/15 10:25:44;;;;;;;4.80;1.65;;;;;;;24.58;39.11;98967.81;5092902;28;20077;-76
2023/04/15 10:28:10;;;;;;;4.22;1.58;;;;;;;24.64;39.18;98955.09;5091835;28;20054;-76
2023/04/15 10:30:36;;;;;;;3.45;1.60;;;;;;;24.55;38.94;98919.00;5093014;28;20031;-76
2023/04/15 10:33:04;;;;;;;3.30;1.60;;;;;;;24.97;38.56;98964.22;5092911;28;20028;-76
2023/04/15 10:35:31;;;;;;;4.35;2.03;;;;;;;25.15;38.75;98993.22;5091428;28;20031;-77
2023/04/15 10:37:57;;;;;;;3.55;1.42;;;;;;;24.62;38.88;98909.50;5092068;28;20039;-77
2023/04/15 10:40:27;;;;;;;3.90;1.92;;;;;;;24.84;39.28;98946.78;5092887;28;20028;-77
2023/04/15 10:42:56;;;;;;;7.90;2.90;;;;;;;24.88;40.10;98993.72;5092824;28;20081;-77
2023/04/15 10:45:26;;;;;;;4.63;1.90;;;;;;;24.31;40.72;98940.50;5092803;28;20078;-77
2023/04/15 10:47:55;;;;;;;4.13;2.22;;;;;;;24.77;39.66;98972.53;5092686;28;20031;-77
2023/04/15 10:50:21;;;;;;;4.55;1.85;;;;;;;24.85;40.30;98985.41;5092926;28;20027;-78
2023/04/15 10:52:50;;;;;;;4.63;2.22;;;;;;;24.57;40.15;98982.41;5092622;28;20020;-77
2023/04/15 10:55:21;;;;;;;5.20;2.38;;;;;;;24.63;40.58;98980.47;5092612;28;20020;-77
2023/04/15 10:57:51;;;;;;;5.32;2.15;;;;;;;24.38;40.05;98922.91;5092936;28;20103;-78
2023/04/15 11:00:18;;;;;;;4.22;2.10;;;;;;;24.01;40.07;98898.38;5092442;28;20028;-77
2023/04/15 11:02:55;;;;;;;4.60;2.20;;;;;;;24.29;40.39;98973.16;5092334;28;20020;-76
2023/04/15 11:05:42;;;;;;;4.35;1.77;;;;;;;24.16;40.43;98938.72;5090930;28;20625;-78
2023/04/15 11:08:09;;;;;;;4.88;1.85;;;;;;;24.36;40.32;98949.38;5092131;28;20421;-77
2023/04/15 11:10:34;;;;;;;5.00;2.00;;;;;;;24.92;38.86;98964.25;5092266;28;20023;-77
2023/04/15 11:13:03;;;;;;;4.63;1.60;;;;;;;25.15;37.91;98960.78;5092358;28;20028;-78
2023/04/15 11:15:40;;;;;;;5.72;1.77;;;;;;;25.03;37.96;98971.19;5092588;28;20027;-78
2023/04/15 11:18:18;;;;;;;9.20;2.35;;;;;;;25.15;36.49;98957.28;5092439;28;20094;-77
2023/04/15 11:20:52;;;;;;;5.68;1.73;;;;;;;24.87;36.26;98921.91;5092157;28;20455;-77
2023/04/15 11:23:26;;;;;;;5.90;2.17;;;;;;;25.24;36.77;98942.84;5092250;28;20102;-78
2023/04/15 11:25:54;;;;;;;6.75;2.10;;;;;;;25.06;36.93;98867.19;5092061;28;20104;-77
2023/04/15 11:28:19;;;;;;;8.10;2.17;;;;;;;25.67;35.58;98948.31;5091893;28;20028;-79